Time;durP1;ratioP1;P1;durP2;ratioP2;P2;SDS_P1;SDS_P2;PMS_P1;PMS_P2;Temp;Humidity;BMP_temperature;BMP_pressure;BME280_temperature;BME280_humidity;BME280_pressure;Samples;Min_cycle;Max_cycle;Signal;HPM_P1;HPM_P2
2022/12/30 00:02:21;;;;;;;16.33;3.00;;;;;;;4.29;100.00;100960.38;4941138;29;20031;-82
2022/12/30 00:04:46;;;;;;;8.27;2.70;;;;;;;4.59;100.00;101006.22;4957180;29;20039;-81
2022/12/30 00:07:11;;;;;;;14.52;2.72;;;;;;;4.43;100.00;100984.66;4957541;29;20042;-83
2022/12/30 00:09:37;;;;;;;19.42;3.72;;;;;;;4.52;100.00;101013.31;4957265;29;20034;-84
2022/12/30 00:33:06;;;;;;;14.35;3.05;;;;;;;4.52;100.00;101009.88;4955634;29;20039;-84
2022/12/30 00:34:12;;;;;;;16.80;2.33;;;;;;;4.10;100.00;101012.19;4957168;29;20038;-83
2022/12/30 00:36:38;;;;;;;13.18;2.60;;;;;;;4.22;100.00;101037.31;4956519;28;20126;-83
2022/12/30 00:39:03;;;;;;;14.10;2.58;;;;;;;4.01;100.00;101000.53;4956454;29;20474;-83
2022/12/30 00:44:12;;;;;;;11.95;2.55;;;;;;;4.11;100.00;101026.63;4956900;29;20034;-83
2022/12/30 00:46:40;;;;;;;13.43;3.13;;;;;;;4.07;100.00;101023.34;4956983;29;20471;-82
2022/12/30 00:57:17;;;;;;;10.63;2.70;;;;;;;4.00;100.00;101029.53;4956996;29;20094;-84
2022/12/30 00:59:43;;;;;;;15.45;3.65;;;;;;;3.51;100.00;100951.09;4956643;29;20035;-83
2022/12/30 01:02:08;;;;;;;15.00;3.50;;;;;;;3.88;100.00;101019.72;4956576;29;20555;-83
2022/12/30 01:04:33;;;;;;;13.73;3.63;;;;;;;3.93;100.00;101038.28;4956377;29;20035;-83
2022/12/30 01:06:59;;;;;;;12.80;3.70;;;;;;;3.64;100.00;100983.03;4956366;29;20066;-83
2022/12/30 01:09:24;;;;;;;18.27;3.85;;;;;;;3.94;100.00;101033.13;4956380;29;20070;-83
2022/12/30 01:12:07;;;;;;;12.77;3.33;;;;;;;3.94;100.00;101042.53;4956074;29;20035;-83
2022/12/30 01:14:34;;;;;;;13.93;2.88;;;;;;;3.83;100.00;101029.22;4956408;29;20037;-83
2022/12/30 01:16:59;;;;;;;17.08;3.85;;;;;;;3.62;100.00;101000.09;4956331;29;20055;-83
2022/12/30 01:19:25;;;;;;;15.95;3.55;;;;;;;3.90;100.00;101043.50;4956494;29;20062;-82
2022/12/30 01:21:50;;;;;;;13.30;3.10;;;;;;;3.75;100.00;101019.28;4956226;29;20415;-83
2022/12/30 01:24:15;;;;;;;21.13;4.68;;;;;;;3.89;100.00;101044.38;4955992;29;20023;-83
2022/12/30 01:26:41;;;;;;;13.90;3.40;;;;;;;3.90;100.00;101048.59;4955957;29;20031;-83
2022/12/30 01:29:06;;;;;;;20.40;3.88;;;;;;;3.89;100.00;101052.03;4938410;29;20043;-83
2022/12/30 01:31:31;;;;;;;14.85;3.17;;;;;;;3.82;100.00;101030.97;4955693;29;20051;-82
2022/12/30 01:33:56;;;;;;;16.52;3.28;;;;;;;3.96;100.00;101053.53;4955988;29;20118;-83
2022/12/30 01:36:22;;;;;;;17.60;3.40;;;;;;;3.97;100.00;101055.19;4955895;29;20089;-83
2022/12/30 01:38:47;;;;;;;17.88;3.65;;;;;;;3.98;100.00;101067.09;4955823;29;20077;-82
2022/12/30 01:41:12;;;;;;;13.20;2.80;;;;;;;3.77;100.00;101034.56;4954521;29;20422;-82
2022/12/30 01:43:44;;;;;;;16.63;3.40;;;;;;;3.94;100.00;101068.91;4955882;29;20463;-81
2022/12/30 01:46:15;;;;;;;17.50;3.67;;;;;;;3.92;100.00;101077.47;4955508;29;20078;-83
2022/12/30 01:48:40;;;;;;;17.70;3.45;;;;;;;3.81;100.00;101059.09;4954258;28;20391;-81
2022/12/30 01:51:20;;;;;;;15.48;3.17;;;;;;;3.89;100.00;101077.59;4955745;29;20038;-81
2022/12/30 01:53:49;;;;;;;12.75;2.97;;;;;;;3.86;100.00;101077.69;4955658;29;20396;-81
2022/12/30 01:56:21;;;;;;;20.38;3.83;;;;;;;3.67;100.00;101050.16;4955284;29;20063;-82
2022/12/30 01:59:05;;;;;;;20.88;3.40;;;;;;;3.74;100.00;101069.53;4955125;29;20030;-81
2022/12/30 02:01:33;;;;;;;16.00;3.30;;;;;;;3.83;100.00;101090.53;4955680;29;20027;-82
2022/12/30 02:04:03;;;;;;;19.15;4.05;;;;;;;3.69;100.00;101065.44;4955471;29;20028;-82
2022/12/30 02:06:51;;;;;;;16.33;3.38;;;;;;;3.61;100.00;101050.34;4955514;29;20031;-82
2022/12/30 02:09:17;;;;;;;17.00;3.78;;;;;;;3.79;100.00;101068.53;4955090;29;20027;-83
2022/12/30 02:11:43;;;;;;;16.23;3.25;;;;;;;3.82;100.00;101071.81;4955067;29;20031;-83
2022/12/30 02:14:08;;;;;;;22.02;3.78;;;;;;;3.73;100.00;101061.91;4955296;29;20033;-82
2022/12/30 02:16:56;;;;;;;12.70;3.33;;;;;;;3.77;100.00;101073.69;4955297;29;20023;-81
2022/12/30 02:19:36;;;;;;;15.48;2.90;;;;;;;3.73;100.00;101067.84;4955276;29;20509;-82
2022/12/30 02:22:19;;;;;;;12.20;2.88;;;;;;;3.70;100.00;101078.16;4954968;29;20074;-82
2022/12/30 02:25:18;;;;;;;15.05;3.40;;;;;;;3.66;100.00;101065.53;4954961;29;20027;-81
2022/12/30 02:28:05;;;;;;;17.63;3.30;;;;;;;3.63;100.00;101066.44;4954876;29;20054;-83
2022/12/30 02:30:46;;;;;;;18.17;3.50;;;;;;;3.64;100.00;101065.59;4954854;29;20031;-82
2022/12/30 02:33:26;;;;;;;15.10;3.80;;;;;;;3.60;100.00;101064.00;4954906;29;20043;-83
2022/12/30 02:36:22;;;;;;;18.40;3.67;;;;;;;3.54;100.00;101061.66;4954903;29;20093;-81
2022/12/30 02:39:02;;;;;;;16.02;3.20;;;;;;;3.50;100.00;101057.50;4954831;29;20035;-83
2022/12/30 02:44:45;;;;;;;;;;;;;;;3.49;100.00;101049.88;4955182;29;20624;-83
2022/12/30 02:47:34;;;;;;;12.73;3.25;;;;;;;3.50;100.00;101046.44;4951869;29;19921;-82
2022/12/30 02:52:51;;;;;;;18.15;3.58;;;;;;;3.19;100.00;100993.78;4954775;29;20130;-83
2022/12/30 02:55:18;;;;;;;13.23;3.08;;;;;;;3.12;100.00;100977.78;4954843;29;20098;-83
2022/12/30 02:57:43;;;;;;;15.90;2.90;;;;;;;3.37;100.00;101012.81;4954490;29;20051;-83
2022/12/30 03:06:50;;;;;;;15.88;3.47;;;;;;;3.37;100.00;101023.03;4876800;29;20175;-83
2022/12/30 03:11:12;;;;;;;17.58;3.92;;;;;;;3.33;100.00;101024.81;4876748;29;20069;-83
2022/12/30 03:12:33;;;;;;;17.67;3.45;;;;;;;3.30;100.00;101022.34;4946341;23;20468;-82
2022/12/30 03:15:08;;;;;;;14.55;3.50;;;;;;;3.26;100.00;101019.94;4954690;29;20031;-84
2022/12/30 03:17:37;;;;;;;14.20;3.05;;;;;;;3.23;100.00;101027.69;4954524;29;20027;-83
2022/12/30 03:20:08;;;;;;;15.80;3.30;;;;;;;3.23;100.00;101025.13;4954400;29;20501;-83
2022/12/30 03:28:07;;;;;;;9.73;2.85;;;;;;;3.22;100.00;101021.75;4954062;29;20455;-82
2022/12/30 03:30:39;;;;;;;16.00;2.88;;;;;;;3.06;100.00;100998.41;4954450;29;20110;-83
2022/12/30 03:33:05;;;;;;;12.43;3.40;;;;;;;3.03;100.00;100995.09;4954261;29;20391;-82
2022/12/30 03:35:34;;;;;;;14.73;3.15;;;;;;;2.99;100.00;100990.97;4954282;29;20035;-83
2022/12/30 03:38:03;;;;;;;13.38;3.70;;;;;;;2.79;100.00;100955.84;4954510;29;20032;-83
2022/12/30 03:40:33;;;;;;;12.75;2.78;;;;;;;3.05;100.00;101006.09;4954371;29;20037;-83
2022/12/30 03:42:59;;;;;;;13.75;2.75;;;;;;;3.13;100.00;101017.75;4954005;29;20479;-83
2022/12/30 03:45:25;;;;;;;16.20;3.72;;;;;;;3.13;100.00;101020.28;4954144;29;20059;-83
2022/12/30 03:47:50;;;;;;;12.25;3.00;;;;;;;3.09;100.00;101021.28;4954272;29;20065;-83
2022/12/30 03:50:15;;;;;;;15.15;3.70;;;;;;;3.08;100.00;101019.59;4953858;29;20102;-82
2022/12/30 03:52:41;;;;;;;15.80;3.40;;;;;;;3.07;100.00;101023.03;4954270;29;20051;-83
2022/12/30 03:55:07;;;;;;;18.77;3.80;;;;;;;3.05;100.00;101029.91;4953973;29;20530;-83
2022/12/30 03:57:32;;;;;;;15.55;3.25;;;;;;;2.75;100.00;100982.28;4953967;29;20038;-82
2022/12/30 03:59:58;;;;;;;13.35;3.20;;;;;;;2.97;100.00;101020.78;4954189;29;20024;-82
2022/12/30 04:02:23;;;;;;;14.02;3.30;;;;;;;2.75;100.00;100998.44;4954092;29;20063;-83
2022/12/30 04:04:48;;;;;;;16.60;3.20;;;;;;;2.94;100.00;101023.41;4936283;29;20114;-83
2022/12/30 04:07:14;;;;;;;14.07;3.08;;;;;;;2.71;100.00;100985.81;4954116;29;20079;-83
2022/12/30 04:09:39;;;;;;;18.70;3.67;;;;;;;2.71;100.00;100991.75;4954124;29;20037;-83
2022/12/30 04:12:05;;;;;;;16.95;3.58;;;;;;;2.88;100.00;101029.53;4954123;28;20051;-82
2022/12/30 04:14:30;;;;;;;16.05;4.03;;;;;;;2.85;100.00;101034.69;4957293;29;20024;-83
2022/12/30 04:16:56;;;;;;;15.13;3.75;;;;;;;2.70;100.00;101014.75;4957282;29;20486;-83
2022/12/30 04:19:21;;;;;;;12.32;3.60;;;;;;;2.81;100.00;101035.69;4957252;29;20102;-83
2022/12/30 04:21:46;;;;;;;17.60;3.20;;;;;;;2.67;100.00;101012.28;4957179;29;20019;-83
2022/12/30 04:24:12;;;;;;;22.73;3.90;;;;;;;2.48;100.00;100989.84;4956985;29;20027;-83
2022/12/30 04:26:37;;;;;;;18.23;4.13;;;;;;;2.80;100.00;101041.66;4939337;29;20561;-83
2022/12/30 04:29:02;;;;;;;14.57;3.58;;;;;;;2.81;100.00;101039.06;4957020;29;20031;-83
2022/12/30 04:31:28;;;;;;;21.05;4.05;;;;;;;2.65;100.00;101006.38;4957437;29;20023;-82
2022/12/30 04:33:53;;;;;;;16.52;3.83;;;;;;;2.58;100.00;100995.53;4957159;29;20034;-83
2022/12/30 04:36:20;;;;;;;24.50;4.10;;;;;;;2.80;100.00;101034.84;4956856;29;20031;-83
2022/12/30 04:38:46;;;;;;;19.00;4.07;;;;;;;2.68;100.00;101004.59;4957122;29;20102;-83
2022/12/30 04:41:11;;;;;;;16.35;4.18;;;;;;;2.79;100.00;101025.53;4957116;29;20126;-83
2022/12/30 04:43:37;;;;;;;23.55;4.63;;;;;;;2.56;100.00;100992.19;4956768;29;20042;-84
2022/12/30 04:46:06;;;;;;;16.85;3.58;;;;;;;2.75;100.00;101020.53;4956566;29;20046;-83
2022/12/30 04:48:32;;;;;;;20.38;3.58;;;;;;;2.57;100.00;100997.25;4957016;29;20051;-83
2022/12/30 04:50:57;;;;;;;18.50;4.55;;;;;;;2.69;100.00;101029.22;4956701;29;20031;-83
2022/12/30 04:53:23;;;;;;;13.40;3.17;;;;;;;2.55;100.00;101001.53;4956516;29;20395;-83
2022/12/30 04:55:53;;;;;;;13.43;3.28;;;;;;;2.42;100.00;100981.50;4956896;29;20387;-83
2022/12/30 04:58:22;;;;;;;13.82;3.47;;;;;;;2.63;100.00;101023.44;4956445;29;20126;-83
2022/12/30 05:00:49;;;;;;;15.15;3.63;;;;;;;2.63;100.00;101023.44;4938934;29;20031;-83
2022/12/30 05:03:14;;;;;;;19.42;4.15;;;;;;;2.61;100.00;101017.53;4956595;29;20030;-82
2022/12/30 05:05:40;;;;;;;17.95;3.65;;;;;;;2.58;100.00;101009.09;4956103;29;20031;-83
2022/12/30 05:08:05;;;;;;;17.83;3.60;;;;;;;2.15;100.00;100940.59;4956316;29;20082;-82
2022/12/30 05:10:35;;;;;;;17.42;3.47;;;;;;;2.57;100.00;101012.53;4956439;29;20031;-83
2022/12/30 05:13:01;;;;;;;16.40;3.20;;;;;;;2.54;100.00;101015.16;4956484;29;20036;-83
2022/12/30 05:15:26;;;;;;;23.15;4.38;;;;;;;2.46;100.00;100994.16;4956189;29;20050;-83
2022/12/30 05:17:51;;;;;;;18.10;3.42;;;;;;;1.35;100.00;100824.69;4963017;23;20078;-83
2022/12/30 05:20:17;;;;;;;15.90;3.33;;;;;;;2.55;100.00;101006.63;4956057;29;20023;-82
2022/12/30 05:22:43;;;;;;;21.58;4.63;;;;;;;2.56;100.00;101005.75;4955599;28;20468;-83
2022/12/30 05:27:52;;;;;;;18.65;3.88;;;;;;;2.57;100.00;101004.06;4956378;29;20050;-83
2022/12/30 05:30:18;;;;;;;17.40;4.00;;;;;;;2.59;100.00;101012.50;4955727;29;20019;-83
2022/12/30 05:32:44;;;;;;;18.58;4.50;;;;;;;2.59;100.00;101005.69;4955922;29;20024;-83
2022/12/30 05:35:09;;;;;;;18.45;3.72;;;;;;;2.63;100.00;101008.13;4955779;29;20390;-83
2022/12/30 05:37:34;;;;;;;16.30;3.90;;;;;;;2.38;100.00;100957.84;4955676;29;20106;-83
2022/12/30 05:40:00;;;;;;;15.32;4.47;;;;;;;2.34;100.00;100950.28;4956077;29;20038;-83
2022/12/30 05:42:25;;;;;;;17.48;5.07;;;;;;;2.13;100.00;100919.41;4955836;29;20475;-83
2022/12/30 05:44:50;;;;;;;19.25;4.40;;;;;;;2.29;100.00;100942.78;4955595;29;20057;-83
2022/12/30 05:47:16;;;;;;;20.38;3.85;;;;;;;2.74;100.00;101009.50;4955435;29;20391;-83
2022/12/30 05:49:41;;;;;;;26.10;5.38;;;;;;;2.37;100.00;100940.03;4955684;29;20110;-83
2022/12/30 05:52:06;;;;;;;18.33;4.60;;;;;;;2.57;100.00;100971.75;4955249;29;20038;-83
2022/12/30 05:54:32;;;;;;;18.83;4.70;;;;;;;2.59;100.00;100972.53;4955511;29;20035;-83
2022/12/30 05:56:57;;;;;;;18.88;4.63;;;;;;;2.58;100.00;100970.88;4955453;29;20030;-83
2022/12/30 05:59:22;;;;;;;16.80;3.78;;;;;;;2.70;100.00;100990.06;4955476;29;20119;-83
2022/12/30 06:01:47;;;;;;;14.13;3.33;;;;;;;2.76;100.00;101000.13;4955210;29;20110;-83
2022/12/30 06:04:13;;;;;;;17.10;3.92;;;;;;;2.74;100.00;100990.81;4938550;29;20023;-82
2022/12/30 06:06:38;;;;;;;17.85;4.07;;;;;;;2.82;100.00;100994.81;4955026;29;20027;-83
2022/12/30 06:09:04;;;;;;;17.83;3.90;;;;;;;2.84;100.00;101000.72;4955486;29;20031;-83
2022/12/30 06:11:29;;;;;;;14.25;3.60;;;;;;;2.85;100.00;100999.00;4955270;29;20383;-83
2022/12/30 06:13:54;;;;;;;19.30;4.07;;;;;;;2.87;100.00;100990.44;4955251;29;20039;-83
2022/12/30 06:16:20;;;;;;;21.45;4.07;;;;;;;2.73;100.00;100959.38;4937593;29;20031;-83
2022/12/30 06:18:45;;;;;;;20.30;4.70;;;;;;;2.87;100.00;100975.16;4954740;29;20043;-83
2022/12/30 06:21:10;;;;;;;21.23;4.60;;;;;;;2.87;100.00;100982.78;4937987;29;20035;-83
2022/12/30 06:23:36;;;;;;;19.20;3.85;;;;;;;2.55;100.00;100917.41;4954843;29;20031;-83
2022/12/30 06:26:01;;;;;;;16.77;4.05;;;;;;;2.81;100.00;100954.91;4955167;29;20453;-83
2022/12/30 06:28:28;;;;;;;17.30;4.85;;;;;;;2.90;100.00;100971.66;4954835;29;20023;-83
2022/12/30 06:30:54;;;;;;;16.80;3.50;;;;;;;2.80;100.00;100953.25;4954653;29;20023;-83
2022/12/30 06:33:20;;;;;;;17.65;4.15;;;;;;;2.93;100.00;100970.72;4954906;29;20038;-83
2022/12/30 06:35:47;;;;;;;11.70;3.50;;;;;;;2.91;100.00;100972.50;4954083;28;20027;-83
2022/12/30 06:38:12;;;;;;;25.23;5.57;;;;;;;2.66;100.00;100936.69;4954623;29;20024;-82
2022/12/30 06:40:38;;;;;;;19.60;4.45;;;;;;;2.72;100.00;100937.31;4954957;29;20121;-82
2022/12/30 06:43:03;;;;;;;15.57;3.70;;;;;;;2.90;100.00;100974.22;4954851;29;20027;-82
2022/12/30 06:45:28;;;;;;;15.10;3.75;;;;;;;2.72;100.00;100929.66;4954377;29;20471;-83
2022/12/30 06:47:54;;;;;;;13.95;4.60;;;;;;;2.88;100.00;100946.22;4954683;29;20077;-83
2022/12/30 06:50:19;;;;;;;17.70;3.72;;;;;;;2.66;100.00;100906.09;4954672;29;20534;-83
2022/12/30 06:52:44;;;;;;;19.27;4.20;;;;;;;2.85;100.00;100935.25;4954671;29;20479;-83
2022/12/30 06:55:10;;;;;;;15.45;4.22;;;;;;;2.87;100.00;100933.50;4954553;29;20483;-83
2022/12/30 06:57:35;;;;;;;19.13;4.47;;;;;;;2.73;100.00;100910.09;4954453;29;20031;-84
2022/12/30 07:00:04;;;;;;;17.17;3.70;;;;;;;1.83;100.00;100752.19;4954621;29;20031;-84
2022/12/30 07:02:29;;;;;;;13.20;4.30;;;;;;;2.68;100.00;100878.81;4954342;29;20027;-84
2022/12/30 07:04:55;;;;;;;18.33;4.03;;;;;;;2.89;100.00;100908.78;4954503;29;20038;-94
2022/12/30 07:07:21;;;;;;;16.77;4.70;;;;;;;2.87;100.00;100900.34;4954672;29;20031;-84
2022/12/30 07:09:46;;;;;;;20.02;4.20;;;;;;;2.63;100.00;100850.06;4954465;29;20031;-84
2022/12/30 07:12:11;;;;;;;15.98;4.43;;;;;;;2.93;100.00;100895.03;4954808;29;20067;-82
2022/12/30 07:14:40;;;;;;;13.88;4.15;;;;;;;2.74;100.00;100855.66;4954225;29;20059;-83
2022/12/30 07:17:05;;;;;;;19.55;5.10;;;;;;;2.99;100.00;100884.66;4954054;29;20051;-83
2022/12/30 07:19:31;;;;;;;17.55;4.93;;;;;;;3.01;100.00;100885.44;4954529;29;20147;-82
2022/12/30 07:21:56;;;;;;;16.20;5.00;;;;;;;2.95;100.00;100875.44;4954256;29;20387;-83
2022/12/30 07:24:22;;;;;;;18.05;5.00;;;;;;;2.96;100.00;100874.56;4954323;29;20074;-83
2022/12/30 07:26:47;;;;;;;15.07;4.78;;;;;;;3.05;100.00;100886.19;4954155;29;20474;-83
2022/12/30 07:29:13;;;;;;;15.20;4.65;;;;;;;3.06;100.00;100887.88;4954288;29;20028;-82
2022/12/30 07:31:39;;;;;;;18.30;4.13;;;;;;;2.82;100.00;100852.00;4953974;29;20107;-82
2022/12/30 07:34:05;;;;;;;17.92;4.38;;;;;;;2.97;100.00;100871.13;4954545;29;20038;-82
2022/12/30 07:36:30;;;;;;;18.02;5.13;;;;;;;3.08;100.00;100883.56;4954120;29;20040;-82
2022/12/30 07:38:57;;;;;;;22.23;5.00;;;;;;;3.05;100.00;100860.69;4954382;29;20023;-82
2022/12/30 07:41:23;;;;;;;18.83;4.50;;;;;;;3.04;100.00;100843.69;4953673;29;20067;-78
2022/12/30 07:43:48;;;;;;;15.48;4.93;;;;;;;2.98;100.00;100841.34;4954526;29;20046;-80
2022/12/30 07:46:13;;;;;;;19.25;5.13;;;;;;;2.92;100.00;100824.50;4954498;28;20470;-81
2022/12/30 07:48:38;;;;;;;13.82;4.40;;;;;;;2.96;100.00;100826.09;4957746;29;20023;-81
2022/12/30 07:51:14;;;;;;;15.48;4.60;;;;;;;3.10;100.00;100846.06;4958000;29;20110;-83
2022/12/30 07:53:40;;;;;;;18.27;4.60;;;;;;;2.90;100.00;100794.84;4940329;29;20023;-82
2022/12/30 07:56:08;;;;;;;15.23;4.93;;;;;;;3.11;100.00;100832.41;4958152;29;20070;-81
2022/12/30 07:58:34;;;;;;;17.98;4.63;;;;;;;2.96;100.00;100805.69;4957734;29;20020;-81
2022/12/30 08:01:06;;;;;;;14.85;4.50;;;;;;;3.12;100.00;100821.31;4957616;29;20034;-80
2022/12/30 08:03:32;;;;;;;11.32;4.88;;;;;;;2.92;100.00;100776.06;4957689;29;20415;-80
2022/12/30 08:06:06;;;;;;;18.33;4.57;;;;;;;3.04;100.00;100780.75;4957410;29;20031;-81
2022/12/30 08:08:32;;;;;;;17.15;4.60;;;;;;;3.07;100.00;100777.28;4957365;29;20356;-80
2022/12/30 08:10:59;;;;;;;15.65;4.75;;;;;;;3.02;100.00;100754.47;4939997;29;20034;-81
2022/12/30 08:13:24;;;;;;;11.00;4.43;;;;;;;3.38;100.00;100803.44;4957456;29;20041;-81
2022/12/30 08:15:49;;;;;;;18.27;5.00;;;;;;;3.12;100.00;100749.88;4957408;29;20023;-81
2022/12/30 08:18:18;;;;;;;13.23;4.18;;;;;;;3.48;100.00;100792.94;4956953;29;20039;-80
2022/12/30 08:20:43;;;;;;;14.88;4.18;;;;;;;3.48;100.00;100792.94;4957184;29;20364;-85
2022/12/30 08:23:09;;;;;;;11.98;3.97;;;;;;;3.59;100.00;100795.94;4957165;29;20059;-83
2022/12/30 08:25:35;;;;;;;12.18;4.57;;;;;;;3.66;100.00;100795.69;4957218;29;20039;-79
2022/12/30 08:28:00;;;;;;;12.63;4.63;;;;;;;3.73;100.00;100789.44;4957126;29;20058;-79
2022/12/30 08:30:26;;;;;;;14.60;5.38;;;;;;;3.81;100.00;100793.47;4957291;29;20031;-80
2022/12/30 08:32:51;;;;;;;12.00;4.00;;;;;;;3.86;100.00;100789.03;4956906;29;20024;-79
2022/12/30 08:35:17;;;;;;;11.57;3.92;;;;;;;3.72;100.00;100759.69;4957017;29;20082;-79
2022/12/30 08:37:42;;;;;;;11.82;3.67;;;;;;;3.98;100.00;100778.38;4957011;29;20038;-80
2022/12/30 08:40:09;;;;;;;10.93;4.00;;;;;;;4.05;100.00;100761.09;4956789;29;20024;-79
2022/12/30 08:42:35;;;;;;;12.63;3.70;;;;;;;4.03;100.00;100744.09;4956915;29;20066;-79
2022/12/30 08:45:01;;;;;;;18.33;4.82;;;;;;;4.14;100.00;100746.25;4956882;29;20070;-80
2022/12/30 08:47:26;;;;;;;12.93;4.00;;;;;;;4.27;100.00;100751.72;4956613;29;20139;-78
2022/12/30 08:49:52;;;;;;;11.73;3.85;;;;;;;4.36;100.00;100751.38;4956710;29;20086;-80
2022/12/30 08:52:17;;;;;;;16.70;4.03;;;;;;;4.44;100.00;100744.25;4950994;29;20034;-78
2022/12/30 08:54:43;;;;;;;11.18;3.30;;;;;;;4.37;100.00;100714.69;4938074;29;20043;-76
2022/12/30 08:57:09;;;;;;;11.65;3.63;;;;;;;4.53;100.00;100726.00;4937809;29;20027;-78
2022/12/30 08:59:34;;;;;;;12.75;3.47;;;;;;;4.66;100.00;100731.44;4936687;29;20035;-79
2022/12/30 09:01:59;;;;;;;10.88;3.35;;;;;;;4.59;100.00;100701.88;4937160;29;20162;-81
2022/12/30 09:04:24;;;;;;;13.13;3.50;;;;;;;4.77;100.00;100726.72;4937544;29;20055;-78
2022/12/30 09:06:50;;;;;;;9.02;2.90;;;;;;;4.84;100.00;100728.16;4920064;29;20040;-79
2022/12/30 09:09:15;;;;;;;13.80;3.95;;;;;;;4.91;100.00;100726.16;4937287;29;20456;-79
2022/12/30 09:11:42;;;;;;;10.15;2.78;;;;;;;4.98;100.00;100727.56;4936964;29;20107;-79
2022/12/30 09:14:09;;;;;;;8.25;2.58;;;;;;;5.03;100.00;100722.28;4936975;29;20024;-78
2022/12/30 09:16:35;;;;;;;8.50;3.40;;;;;;;5.09;100.00;100709.22;4936894;29;20062;-77
2022/12/30 09:19:01;;;;;;;11.57;2.70;;;;;;;5.15;100.00;100707.22;4936589;29;20072;-76
2022/12/30 09:21:26;;;;;;;8.00;2.80;;;;;;;5.11;100.00;100694.59;4937131;29;20123;-79
2022/12/30 09:23:52;;;;;;;10.18;2.88;;;;;;;5.23;100.00;100703.53;4936926;29;20107;-78
2022/12/30 09:26:20;;;;;;;11.98;2.80;;;;;;;5.29;100.00;100701.50;4936658;29;20028;-80
2022/12/30 09:28:47;;;;;;;7.72;2.38;;;;;;;5.35;100.00;100698.69;4937071;29;20436;-77
2022/12/30 09:31:13;;;;;;;12.57;3.08;;;;;;;5.42;100.00;100704.38;4936940;29;20020;-77
2022/12/30 09:33:38;;;;;;;7.20;2.05;;;;;;;5.14;100.00;100651.00;4936483;29;20036;-78
2022/12/30 09:36:05;;;;;;;11.82;2.83;;;;;;;5.54;100.00;100687.66;4936778;29;20495;-79
2022/12/30 09:38:30;;;;;;;12.77;2.95;;;;;;;5.59;100.00;100680.56;4936690;29;20028;-80
2022/12/30 09:41:01;;;;;;;11.32;2.38;;;;;;;5.65;100.00;100672.63;4936627;29;20030;-80
2022/12/30 09:44:07;;;;;;;6.95;2.05;;;;;;;5.81;100.00;100671.03;4936797;29;20027;-85
2022/12/30 09:46:39;;;;;;;11.38;2.70;;;;;;;5.87;100.00;100672.47;4936544;29;20036;-80
2022/12/30 09:49:22;;;;;;;8.70;2.47;;;;;;;5.81;100.00;100657.41;4936602;29;20027;-80
2022/12/30 09:51:53;;;;;;;7.65;2.03;;;;;;;5.87;100.00;100649.41;4936495;29;20086;-81
2022/12/30 09:54:24;;;;;;;7.17;1.93;;;;;;;6.01;100.00;100663.28;4936446;29;20031;-79
2022/12/30 09:56:52;;;;;;;9.63;1.80;;;;;;;5.94;100.00;100640.56;4936534;29;20310;-80
2022/12/30 09:59:32;;;;;;;6.18;1.55;;;;;;;5.87;100.00;100616.94;4936284;29;20040;-79
2022/12/30 10:02:22;;;;;;;8.00;1.75;;;;;;;6.06;100.00;100627.19;4936026;29;20036;-79
2022/12/30 10:04:48;;;;;;;6.80;1.70;;;;;;;5.74;100.00;100569.72;4880514;29;20133;-80
2022/12/30 10:07:25;;;;;;;5.05;1.60;;;;;;;6.15;100.00;100626.75;4896470;29;20048;-80
2022/12/30 10:09:58;;;;;;;6.38;1.73;;;;;;;6.18;100.00;100628.31;4896216;29;20080;-79
2022/12/30 10:13:09;;;;;;;5.13;1.58;;;;;;;6.20;100.00;100618.84;4896159;29;20130;-78
2022/12/30 10:15:53;;;;;;;6.35;1.52;;;;;;;5.89;100.00;100552.78;4840299;29;20498;-80
2022/12/30 10:18:24;;;;;;;7.07;1.67;;;;;;;6.28;100.00;100611.59;4853097;29;20062;-81
2022/12/30 10:21:00;;;;;;;5.07;1.50;;;;;;;6.06;100.00;100567.41;4857700;29;20065;-78
2022/12/30 10:23:42;;;;;;;6.13;1.40;;;;;;;6.31;100.00;100567.88;4860171;29;20431;-77
2022/12/30 10:26:39;;;;;;;7.88;1.50;;;;;;;6.32;100.00;100572.91;4858441;29;20046;-77
2022/12/30 10:29:13;;;;;;;6.70;2.67;;;;;;;6.30;100.00;100558.53;4858754;29;20516;-79
2022/12/30 10:31:38;;;;;;;10.73;1.90;;;;;;;6.21;100.00;100539.28;4858507;29;20029;-78
2022/12/30 10:34:21;;;;;;;7.30;1.70;;;;;;;6.17;100.00;100519.81;4858548;29;20040;-82
2022/12/30 10:37:00;;;;;;;6.10;1.67;;;;;;;6.39;100.00;100552.94;4858596;29;20037;-77
2022/12/30 10:39:31;;;;;;;7.28;1.70;;;;;;;6.42;100.00;100541.69;4858490;29;20042;-80
2022/12/30 10:42:02;;;;;;;6.25;1.40;;;;;;;6.43;100.00;100539.03;4869064;29;20044;-81
2022/12/30 10:44:37;;;;;;;6.03;1.75;;;;;;;6.44;100.00;100525.31;4877155;29;20029;-81
2022/12/30 10:47:40;;;;;;;9.93;2.38;;;;;;;6.46;100.00;100510.66;4877074;29;20047;-79
2022/12/30 10:50:27;;;;;;;8.75;1.95;;;;;;;6.47;100.00;100507.19;4876933;29;20037;-83
2022/12/30 10:52:52;;;;;;;8.48;2.10;;;;;;;6.48;100.00;100487.50;4907671;29;20036;-83
2022/12/30 10:55:19;;;;;;;6.57;1.98;;;;;;;6.49;100.00;100484.00;4916474;29;20087;-82
2022/12/30 10:57:45;;;;;;;11.68;2.30;;;;;;;6.52;100.00;100471.88;4916423;29;20038;-81
2022/12/30 11:00:11;;;;;;;9.15;1.80;;;;;;;6.21;100.00;100410.25;4916539;29;20036;-81
2022/12/30 11:02:38;;;;;;;7.32;1.88;;;;;;;6.59;100.00;100455.28;4916451;29;20491;-79
2022/12/30 11:05:35;;;;;;;4.47;1.40;;;;;;;6.65;100.00;100446.41;4916130;29;20035;-81
2022/12/30 11:08:04;;;;;;;8.80;1.80;;;;;;;6.48;100.00;100406.25;4916417;29;20151;-81
2022/12/30 11:10:30;;;;;;;5.55;1.48;;;;;;;6.70;100.00;100430.78;4899808;29;20083;-81
2022/12/30 11:15:54;;;;;;;5.35;1.45;;;;;;;6.59;100.00;100383.44;4916822;29;20046;-80
2022/12/30 11:18:26;;;;;;;8.65;1.80;;;;;;;6.40;100.00;100340.91;4929455;29;20054;-81
2022/12/30 11:20:55;;;;;;;9.70;2.30;;;;;;;6.67;100.00;100377.88;4935381;29;20070;-81
2022/12/30 11:23:25;;;;;;;9.60;2.53;;;;;;;6.76;100.00;100386.81;4939307;29;20087;-81
2022/12/30 11:25:51;;;;;;;7.65;1.90;;;;;;;6.82;100.00;100383.94;4939036;29;20040;-81
2022/12/30 11:28:32;;;;;;;7.22;1.63;;;;;;;6.69;100.00;100355.53;4938985;29;20036;-79
2022/12/30 11:31:10;;;;;;;8.30;1.95;;;;;;;6.88;100.00;100361.34;4939049;29;20020;-81
2022/12/30 11:33:39;;;;;;;9.10;2.47;;;;;;;6.64;100.00;100307.94;4939018;29;20055;-79
2022/12/30 11:36:15;;;;;;;9.05;2.08;;;;;;;6.93;100.00;100340.53;4938671;29;20027;-80
2022/12/30 11:38:42;;;;;;;5.75;1.30;;;;;;;6.72;100.00;100298.91;4938825;29;20036;-80
2022/12/30 11:41:17;;;;;;;7.45;1.70;;;;;;;7.02;100.00;100323.78;4938799;29;20031;-79
2022/12/30 11:43:48;;;;;;;7.53;2.15;;;;;;;7.04;100.00;100309.94;4938965;29;20028;-83
2022/12/30 11:46:21;;;;;;;7.80;2.33;;;;;;;7.04;99.87;100302.25;4938943;29;20477;-80
2022/12/30 11:48:59;;;;;;;6.88;1.73;;;;;;;7.06;99.92;100295.28;4938765;29;20083;-78
2022/12/30 11:51:47;;;;;;;7.93;2.63;;;;;;;7.15;99.34;100299.06;4938458;29;20067;-82
2022/12/30 11:54:16;;;;;;;8.20;2.08;;;;;;;7.18;99.10;100291.22;4938422;29;20032;-80
2022/12/30 11:57:17;;;;;;;9.57;2.13;;;;;;;7.21;99.37;100282.50;4938383;29;20023;-80
2022/12/30 11:59:48;;;;;;;11.55;2.05;;;;;;;7.14;98.58;100251.19;4936248;29;20063;-81
2022/12/30 12:02:23;;;;;;;9.65;1.95;;;;;;;7.32;97.99;100262.97;4938437;29;20530;-81
2022/12/30 12:04:49;;;;;;;6.88;1.58;;;;;;;7.21;98.72;100219.13;4938250;29;20031;-81
2022/12/30 12:07:17;;;;;;;6.78;1.52;;;;;;;7.39;97.71;100225.75;4938497;29;20391;-81
2022/12/30 12:09:52;;;;;;;7.78;2.17;;;;;;;7.24;97.57;100189.84;4938368;29;20043;-81
2022/12/30 12:12:22;;;;;;;12.23;1.80;;;;;;;7.45;97.10;100209.13;4938015;29;20024;-82
2022/12/30 12:15:01;;;;;;;9.05;2.17;;;;;;;7.48;97.04;100214.09;4921513;29;20039;-81
2022/12/30 12:17:57;;;;;;;10.20;2.08;;;;;;;7.52;96.96;100195.00;4937958;29;20039;-81
2022/12/30 12:21:04;;;;;;;10.18;2.08;;;;;;;7.47;96.98;100185.00;4936893;29;20102;-81
2022/12/30 12:23:38;;;;;;;11.27;2.13;;;;;;;7.60;96.61;100200.50;4898112;29;20092;-80
2022/12/30 12:26:18;;;;;;;7.28;1.83;;;;;;;7.60;97.12;100194.53;4897914;29;20107;-83